首页
METAR-TAF:

METAR-TAF

机场 :

Le Luc, 法国

纬度: 43-23N, 经度: 006-23E, 海拔: 80米

当前天气观测

该预报发布于19分钟前的11:00 UTC
风速3节,风向,在西转西南北转东北之间变化
温度 28°C
湿度 35%
气压 1015 hPa
能见度10公里或以上

METAR: LFMC 161100Z AUTO 35003KT 240V030 9999 ////// 28/11 Q1015

时间: 13:19 (11:19 UTC)


TAF: 丢失

超过4000个机场的气象观测和天气预报(METAR&TAF报告)。

可查询的气象台以黄色和红色小点在地图上表示。

将鼠标移到小点上方,可查看气象台名称。

然后点击查看天气观测和预报。

如需切换地图:点击带黑十字的绿色按钮放大地图;点击带横线的绿色按钮缩小地图;或者点击绿色箭头查看邻近地区的地图。


METAR-TAF: